sensor_id;sensor_type;location;lat;lon;timestamp;P1;durP1;ratioP1;P2;durP2;ratioP2
21089;SDS011;10703;51.020;6.128;2023-07-24T00:00:50;10.67;;;6.97;;
21089;SDS011;10703;51.020;6.128;2023-07-24T00:03:16;13.60;;;7.73;;
21089;SDS011;10703;51.020;6.128;2023-07-24T00:05:43;7.80;;;6.97;;
21089;SDS011;10703;51.020;6.128;2023-07-24T00:08:10;10.00;;;7.17;;
21089;SDS011;10703;51.020;6.128;2023-07-24T00:10:36;9.77;;;7.40;;
21089;SDS011;10703;51.020;6.128;2023-07-24T00:13:03;12.17;;;7.80;;
21089;SDS011;10703;51.020;6.128;2023-07-24T00:15:30;11.03;;;7.90;;
21089;SDS011;10703;51.020;6.128;2023-07-24T00:17:56;10.23;;;8.27;;
21089;SDS011;10703;51.020;6.128;2023-07-24T00:20:23;11.93;;;8.20;;
21089;SDS011;10703;51.020;6.128;2023-07-24T00:22:50;12.87;;;8.33;;
21089;SDS011;10703;51.020;6.128;2023-07-24T00:25:17;9.43;;;7.73;;
21089;SDS011;10703;51.020;6.128;2023-07-24T00:27:44;11.10;;;7.40;;
21089;SDS011;10703;51.020;6.128;2023-07-24T00:30:10;15.50;;;8.17;;
21089;SDS011;10703;51.020;6.128;2023-07-24T00:32:37;9.67;;;7.30;;
21089;SDS011;10703;51.020;6.128;2023-07-24T00:35:04;11.27;;;8.03;;
21089;SDS011;10703;51.020;6.128;2023-07-24T00:37:31;11.70;;;7.83;;
21089;SDS011;10703;51.020;6.128;2023-07-24T00:39:57;11.73;;;7.07;;
21089;SDS011;10703;51.020;6.128;2023-07-24T00:42:24;10.63;;;8.23;;
21089;SDS011;10703;51.020;6.128;2023-07-24T00:44:51;11.07;;;7.40;;
21089;SDS011;10703;51.020;6.128;2023-07-24T00:47:17;11.73;;;8.00;;
21089;SDS011;10703;51.020;6.128;2023-07-24T00:49:44;11.80;;;7.40;;
21089;SDS011;10703;51.020;6.128;2023-07-24T00:52:11;13.50;;;8.03;;
21089;SDS011;10703;51.020;6.128;2023-07-24T00:54:38;13.17;;;7.97;;
21089;SDS011;10703;51.020;6.128;2023-07-24T00:57:06;15.27;;;8.03;;
21089;SDS011;10703;51.020;6.128;2023-07-24T00:59:33;10.60;;;8.00;;
21089;SDS011;10703;51.020;6.128;2023-07-24T01:02:00;9.83;;;7.53;;
21089;SDS011;10703;51.020;6.128;2023-07-24T01:04:27;9.43;;;7.17;;
21089;SDS011;10703;51.020;6.128;2023-07-24T01:06:54;10.23;;;7.80;;
21089;SDS011;10703;51.020;6.128;2023-07-24T01:09:21;8.67;;;6.97;;
21089;SDS011;10703;51.020;6.128;2023-07-24T01:17:12;10.87;;;8.00;;
21089;SDS011;10703;51.020;6.128;2023-07-24T01:19:46;10.60;;;7.50;;
21089;SDS011;10703;51.020;6.128;2023-07-24T01:22:19;9.87;;;7.33;;
21089;SDS011;10703;51.020;6.128;2023-07-24T01:27:49;14.33;;;7.60;;
21089;SDS011;10703;51.020;6.128;2023-07-24T01:30:19;9.97;;;7.30;;
21089;SDS011;10703;51.020;6.128;2023-07-24T01:32:46;11.03;;;7.07;;
21089;SDS011;10703;51.020;6.128;2023-07-24T01:35:13;9.43;;;7.00;;
21089;SDS011;10703;51.020;6.128;2023-07-24T01:37:39;8.60;;;7.00;;
21089;SDS011;10703;51.020;6.128;2023-07-24T01:40:08;13.67;;;7.67;;
21089;SDS011;10703;51.020;6.128;2023-07-24T01:42:37;12.07;;;7.10;;
21089;SDS011;10703;51.020;6.128;2023-07-24T01:45:04;11.17;;;7.13;;
21089;SDS011;10703;51.020;6.128;2023-07-24T01:47:32;8.07;;;6.90;;
21089;SDS011;10703;51.020;6.128;2023-07-24T01:49:59;11.33;;;7.10;;
21089;SDS011;10703;51.020;6.128;2023-07-24T01:52:26;10.50;;;6.70;;
21089;SDS011;10703;51.020;6.128;2023-07-24T01:54:52;7.47;;;6.20;;
21089;SDS011;10703;51.020;6.128;2023-07-24T01:57:19;12.23;;;7.23;;
21089;SDS011;10703;51.020;6.128;2023-07-24T01:59:46;8.47;;;6.53;;
21089;SDS011;10703;51.020;6.128;2023-07-24T02:02:12;11.27;;;7.17;;
21089;SDS011;10703;51.020;6.128;2023-07-24T02:04:39;9.27;;;6.50;;
21089;SDS011;10703;51.020;6.128;2023-07-24T02:07:05;9.87;;;7.00;;
21089;SDS011;10703;51.020;6.128;2023-07-24T02:09:32;6.80;;;6.20;;
21089;SDS011;10703;51.020;6.128;2023-07-24T02:11:59;8.73;;;7.30;;
21089;SDS011;10703;51.020;6.128;2023-07-24T02:14:25;8.80;;;7.07;;
21089;SDS011;10703;51.020;6.128;2023-07-24T02:16:52;12.90;;;7.07;;
21089;SDS011;10703;51.020;6.128;2023-07-24T02:19:19;9.07;;;7.07;;
21089;SDS011;10703;51.020;6.128;2023-07-24T02:21:46;11.77;;;6.77;;
21089;SDS011;10703;51.020;6.128;2023-07-24T02:24:13;7.33;;;6.33;;
21089;SDS011;10703;51.020;6.128;2023-07-24T02:26:39;8.03;;;7.23;;
21089;SDS011;10703;51.020;6.128;2023-07-24T02:29:06;12.63;;;7.63;;
21089;SDS011;10703;51.020;6.128;2023-07-24T02:31:33;10.37;;;7.00;;
21089;SDS011;10703;51.020;6.128;2023-07-24T02:34:00;9.57;;;7.07;;
21089;SDS011;10703;51.020;6.128;2023-07-24T02:36:26;9.30;;;6.93;;
21089;SDS011;10703;51.020;6.128;2023-07-24T02:38:53;13.27;;;7.67;;
21089;SDS011;10703;51.020;6.128;2023-07-24T02:41:20;13.87;;;7.80;;
21089;SDS011;10703;51.020;6.128;2023-07-24T02:43:47;10.33;;;7.53;;
21089;SDS011;10703;51.020;6.128;2023-07-24T02:46:13;10.83;;;7.30;;
21089;SDS011;10703;51.020;6.128;2023-07-24T02:48:40;12.93;;;7.97;;
21089;SDS011;10703;51.020;6.128;2023-07-24T02:51:06;13.17;;;8.57;;
21089;SDS011;10703;51.020;6.128;2023-07-24T02:53:33;11.87;;;8.33;;
21089;SDS011;10703;51.020;6.128;2023-07-24T02:56:00;16.13;;;7.73;;
21089;SDS011;10703;51.020;6.128;2023-07-24T02:58:28;8.23;;;7.43;;
21089;SDS011;10703;51.020;6.128;2023-07-24T03:01:02;12.87;;;7.90;;
21089;SDS011;10703;51.020;6.128;2023-07-24T03:03:30;9.70;;;8.40;;
21089;SDS011;10703;51.020;6.128;2023-07-24T03:05:57;12.63;;;8.03;;
21089;SDS011;10703;51.020;6.128;2023-07-24T03:08:24;9.87;;;7.53;;
21089;SDS011;10703;51.020;6.128;2023-07-24T03:10:51;8.80;;;7.90;;
21089;SDS011;10703;51.020;6.128;2023-07-24T03:13:18;9.40;;;7.53;;
21089;SDS011;10703;51.020;6.128;2023-07-24T03:15:51;9.47;;;8.00;;
21089;SDS011;10703;51.020;6.128;2023-07-24T03:18:22;14.20;;;8.13;;
21089;SDS011;10703;51.020;6.128;2023-07-24T03:20:49;12.07;;;8.10;;
21089;SDS011;10703;51.020;6.128;2023-07-24T03:23:15;10.00;;;8.20;;
21089;SDS011;10703;51.020;6.128;2023-07-24T03:25:42;10.20;;;8.07;;
21089;SDS011;10703;51.020;6.128;2023-07-24T03:28:09;12.27;;;8.20;;
21089;SDS011;10703;51.020;6.128;2023-07-24T03:30:35;10.97;;;8.07;;
21089;SDS011;10703;51.020;6.128;2023-07-24T03:33:03;11.27;;;7.90;;
21089;SDS011;10703;51.020;6.128;2023-07-24T03:35:30;14.67;;;8.67;;
21089;SDS011;10703;51.020;6.128;2023-07-24T03:37:57;10.53;;;7.93;;
21089;SDS011;10703;51.020;6.128;2023-07-24T03:40:23;13.70;;;8.00;;
21089;SDS011;10703;51.020;6.128;2023-07-24T03:42:50;12.93;;;7.90;;
21089;SDS011;10703;51.020;6.128;2023-07-24T03:45:17;11.43;;;7.87;;
21089;SDS011;10703;51.020;6.128;2023-07-24T03:47:43;13.33;;;7.87;;
21089;SDS011;10703;51.020;6.128;2023-07-24T03:50:10;11.13;;;8.37;;
21089;SDS011;10703;51.020;6.128;2023-07-24T03:52:36;16.73;;;8.37;;
21089;SDS011;10703;51.020;6.128;2023-07-24T03:55:03;9.90;;;7.73;;
21089;SDS011;10703;51.020;6.128;2023-07-24T03:57:30;11.20;;;8.40;;
21089;SDS011;10703;51.020;6.128;2023-07-24T03:59:57;11.37;;;8.30;;
21089;SDS011;10703;51.020;6.128;2023-07-24T04:02:23;10.40;;;7.83;;
21089;SDS011;10703;51.020;6.128;2023-07-24T04:04:50;12.27;;;7.83;;
21089;SDS011;10703;51.020;6.128;2023-07-24T04:07:17;13.93;;;8.30;;
21089;SDS011;10703;51.020;6.128;2023-07-24T04:09:43;11.23;;;8.30;;
21089;SDS011;10703;51.020;6.128;2023-07-24T04:12:10;12.87;;;8.80;;
21089;SDS011;10703;51.020;6.128;2023-07-24T04:14:37;10.20;;;8.33;;
21089;SDS011;10703;51.020;6.128;2023-07-24T04:17:03;10.97;;;8.10;;
21089;SDS011;10703;51.020;6.128;2023-07-24T04:19:31;12.17;;;8.07;;
21089;SDS011;10703;51.020;6.128;2023-07-24T04:21:58;9.20;;;7.23;;
21089;SDS011;10703;51.020;6.128;2023-07-24T04:24:24;12.37;;;8.10;;
21089;SDS011;10703;51.020;6.128;2023-07-24T04:26:51;11.37;;;8.40;;
21089;SDS011;10703;51.020;6.128;2023-07-24T04:29:18;12.17;;;8.37;;
21089;SDS011;10703;51.020;6.128;2023-07-24T04:31:49;13.33;;;7.53;;
21089;SDS011;10703;51.020;6.128;2023-07-24T04:34:16;13.03;;;8.13;;
21089;SDS011;10703;51.020;6.128;2023-07-24T04:36:43;14.57;;;8.53;;
21089;SDS011;10703;51.020;6.128;2023-07-24T04:39:09;10.10;;;8.03;;
21089;SDS011;10703;51.020;6.128;2023-07-24T04:41:36;11.80;;;7.70;;
21089;SDS011;10703;51.020;6.128;2023-07-24T04:44:03;10.80;;;8.17;;
21089;SDS011;10703;51.020;6.128;2023-07-24T04:46:29;10.37;;;8.17;;
21089;SDS011;10703;51.020;6.128;2023-07-24T04:48:56;15.53;;;8.37;;
21089;SDS011;10703;51.020;6.128;2023-07-24T04:51:23;12.03;;;8.30;;
21089;SDS011;10703;51.020;6.128;2023-07-24T04:53:50;10.13;;;8.17;;
21089;SDS011;10703;51.020;6.128;2023-07-24T04:56:16;10.13;;;7.83;;
21089;SDS011;10703;51.020;6.128;2023-07-24T04:58:43;12.67;;;7.77;;
21089;SDS011;10703;51.020;6.128;2023-07-24T05:01:09;12.70;;;7.70;;
21089;SDS011;10703;51.020;6.128;2023-07-24T05:03:36;9.27;;;7.73;;
21089;SDS011;10703;51.020;6.128;2023-07-24T05:06:02;8.20;;;7.23;;
21089;SDS011;10703;51.020;6.128;2023-07-24T05:08:29;11.93;;;7.53;;
21089;SDS011;10703;51.020;6.128;2023-07-24T05:10:56;8.03;;;7.23;;
21089;SDS011;10703;51.020;6.128;2023-07-24T05:13:25;10.83;;;7.17;;
21089;SDS011;10703;51.020;6.128;2023-07-24T05:15:52;9.57;;;7.40;;
21089;SDS011;10703;51.020;6.128;2023-07-24T05:18:18;12.60;;;7.33;;
21089;SDS011;10703;51.020;6.128;2023-07-24T05:20:45;10.37;;;7.43;;
21089;SDS011;10703;51.020;6.128;2023-07-24T05:23:19;7.70;;;6.20;;
21089;SDS011;10703;51.020;6.128;2023-07-24T05:25:46;7.97;;;6.60;;
21089;SDS011;10703;51.020;6.128;2023-07-24T05:28:13;6.50;;;5.90;;
21089;SDS011;10703;51.020;6.128;2023-07-24T05:30:39;10.33;;;6.70;;
21089;SDS011;10703;51.020;6.128;2023-07-24T05:33:06;7.43;;;6.47;;
21089;SDS011;10703;51.020;6.128;2023-07-24T05:35:33;12.77;;;6.97;;
21089;SDS011;10703;51.020;6.128;2023-07-24T05:38:00;9.67;;;6.90;;
21089;SDS011;10703;51.020;6.128;2023-07-24T05:40:26;6.83;;;6.13;;
21089;SDS011;10703;51.020;6.128;2023-07-24T05:42:54;7.33;;;6.27;;
21089;SDS011;10703;51.020;6.128;2023-07-24T05:45:20;8.13;;;6.43;;
21089;SDS011;10703;51.020;6.128;2023-07-24T05:47:47;6.90;;;5.93;;
21089;SDS011;10703;51.020;6.128;2023-07-24T05:50:14;7.87;;;5.93;;
21089;SDS011;10703;51.020;6.128;2023-07-24T05:52:40;7.43;;;6.00;;
21089;SDS011;10703;51.020;6.128;2023-07-24T05:55:07;8.37;;;6.13;;
21089;SDS011;10703;51.020;6.128;2023-07-24T05:57:34;9.70;;;5.53;;
21089;SDS011;10703;51.020;6.128;2023-07-24T06:00:05;6.97;;;5.70;;
21089;SDS011;10703;51.020;6.128;2023-07-24T06:02:32;14.70;;;5.90;;
21089;SDS011;10703;51.020;6.128;2023-07-24T06:04:59;6.00;;;5.50;;
21089;SDS011;10703;51.020;6.128;2023-07-24T06:07:26;8.20;;;5.37;;
21089;SDS011;10703;51.020;6.128;2023-07-24T06:09:53;6.67;;;5.43;;
21089;SDS011;10703;51.020;6.128;2023-07-24T06:12:19;7.47;;;5.83;;
21089;SDS011;10703;51.020;6.128;2023-07-24T06:14:46;7.73;;;5.73;;
21089;SDS011;10703;51.020;6.128;2023-07-24T06:17:13;5.63;;;5.13;;
21089;SDS011;10703;51.020;6.128;2023-07-24T06:19:39;7.67;;;6.03;;
21089;SDS011;10703;51.020;6.128;2023-07-24T06:22:06;7.17;;;5.80;;
21089;SDS011;10703;51.020;6.128;2023-07-24T06:24:33;6.33;;;5.73;;
21089;SDS011;10703;51.020;6.128;2023-07-24T06:27:00;6.70;;;4.83;;
21089;SDS011;10703;51.020;6.128;2023-07-24T06:29:26;6.10;;;5.10;;
21089;SDS011;10703;51.020;6.128;2023-07-24T06:31:53;7.27;;;5.53;;
21089;SDS011;10703;51.020;6.128;2023-07-24T06:34:20;8.23;;;5.07;;
21089;SDS011;10703;51.020;6.128;2023-07-24T06:36:46;5.80;;;5.00;;
21089;SDS011;10703;51.020;6.128;2023-07-24T06:39:13;4.70;;;4.27;;
21089;SDS011;10703;51.020;6.128;2023-07-24T06:41:40;5.33;;;4.83;;
21089;SDS011;10703;51.020;6.128;2023-07-24T06:44:06;8.70;;;5.50;;
21089;SDS011;10703;51.020;6.128;2023-07-24T06:46:33;6.07;;;4.60;;
21089;SDS011;10703;51.020;6.128;2023-07-24T06:49:00;4.97;;;4.50;;
21089;SDS011;10703;51.020;6.128;2023-07-24T06:51:26;4.90;;;4.40;;
21089;SDS011;10703;51.020;6.128;2023-07-24T06:53:53;4.60;;;4.20;;
21089;SDS011;10703;51.020;6.128;2023-07-24T06:56:19;5.03;;;4.60;;
21089;SDS011;10703;51.020;6.128;2023-07-24T06:58:46;8.47;;;5.33;;
21089;SDS011;10703;51.020;6.128;2023-07-24T07:01:13;6.70;;;4.90;;
21089;SDS011;10703;51.020;6.128;2023-07-24T07:03:40;7.20;;;4.43;;
21089;SDS011;10703;51.020;6.128;2023-07-24T07:06:06;6.70;;;4.80;;
21089;SDS011;10703;51.020;6.128;2023-07-24T07:08:53;5.33;;;4.83;;
21089;SDS011;10703;51.020;6.128;2023-07-24T07:11:20;5.27;;;4.83;;
21089;SDS011;10703;51.020;6.128;2023-07-24T07:13:46;5.47;;;4.97;;
21089;SDS011;10703;51.020;6.128;2023-07-24T07:16:13;5.07;;;4.57;;
21089;SDS011;10703;51.020;6.128;2023-07-24T07:18:42;5.73;;;5.13;;
21089;SDS011;10703;51.020;6.128;2023-07-24T07:21:09;5.53;;;4.67;;
21089;SDS011;10703;51.020;6.128;2023-07-24T07:23:35;5.67;;;5.23;;
21089;SDS011;10703;51.020;6.128;2023-07-24T07:26:02;5.53;;;5.00;;
21089;SDS011;10703;51.020;6.128;2023-07-24T07:28:29;8.23;;;5.10;;
21089;SDS011;10703;51.020;6.128;2023-07-24T07:30:55;5.40;;;4.83;;
21089;SDS011;10703;51.020;6.128;2023-07-24T07:33:22;5.00;;;4.60;;
21089;SDS011;10703;51.020;6.128;2023-07-24T07:35:50;5.60;;;5.10;;
21089;SDS011;10703;51.020;6.128;2023-07-24T07:38:17;5.53;;;5.03;;
21089;SDS011;10703;51.020;6.128;2023-07-24T07:40:44;5.00;;;4.60;;
21089;SDS011;10703;51.020;6.128;2023-07-24T07:43:10;6.13;;;4.73;;
21089;SDS011;10703;51.020;6.128;2023-07-24T07:45:37;5.60;;;5.10;;
21089;SDS011;10703;51.020;6.128;2023-07-24T07:48:03;5.77;;;4.90;;
21089;SDS011;10703;51.020;6.128;2023-07-24T07:50:31;6.38;;;4.43;;
21089;SDS011;10703;51.020;6.128;2023-07-24T07:52:58;5.07;;;4.57;;
21089;SDS011;10703;51.020;6.128;2023-07-24T07:55:25;5.47;;;4.43;;
21089;SDS011;10703;51.020;6.128;2023-07-24T07:57:51;5.10;;;4.53;;
21089;SDS011;10703;51.020;6.128;2023-07-24T08:00:18;8.03;;;4.77;;
21089;SDS011;10703;51.020;6.128;2023-07-24T08:02:45;5.00;;;4.50;;
21089;SDS011;10703;51.020;6.128;2023-07-24T08:05:11;5.20;;;4.80;;
21089;SDS011;10703;51.020;6.128;2023-07-24T08:07:46;5.20;;;4.70;;
21089;SDS011;10703;51.020;6.128;2023-07-24T08:10:13;5.67;;;4.90;;
21089;SDS011;10703;51.020;6.128;2023-07-24T08:12:43;5.70;;;5.10;;
21089;SDS011;10703;51.020;6.128;2023-07-24T08:15:10;5.37;;;4.87;;
21089;SDS011;10703;51.020;6.128;2023-07-24T08:17:37;8.80;;;5.17;;
21089;SDS011;10703;51.020;6.128;2023-07-24T08:20:04;7.90;;;4.73;;
21089;SDS011;10703;51.020;6.128;2023-07-24T08:22:31;5.47;;;4.97;;
21089;SDS011;10703;51.020;6.128;2023-07-24T08:24:58;5.68;;;5.18;;
21089;SDS011;10703;51.020;6.128;2023-07-24T08:27:25;6.33;;;5.20;;
21089;SDS011;10703;51.020;6.128;2023-07-24T08:29:51;5.60;;;5.10;;
21089;SDS011;10703;51.020;6.128;2023-07-24T08:32:21;5.53;;;5.03;;
21089;SDS011;10703;51.020;6.128;2023-07-24T08:34:48;7.15;;;5.25;;
21089;SDS011;10703;51.020;6.128;2023-07-24T08:37:14;7.87;;;5.43;;
21089;SDS011;10703;51.020;6.128;2023-07-24T08:39:41;8.13;;;4.90;;
21089;SDS011;10703;51.020;6.128;2023-07-24T08:42:11;5.53;;;4.60;;
21089;SDS011;10703;51.020;6.128;2023-07-24T08:44:39;5.30;;;4.80;;
21089;SDS011;10703;51.020;6.128;2023-07-24T08:47:06;5.63;;;5.10;;
21089;SDS011;10703;51.020;6.128;2023-07-24T08:49:37;6.30;;;5.20;;
21089;SDS011;10703;51.020;6.128;2023-07-24T08:52:08;5.23;;;4.47;;
21089;SDS011;10703;51.020;6.128;2023-07-24T08:54:48;5.43;;;4.83;;
21089;SDS011;10703;51.020;6.128;2023-07-24T08:57:16;5.80;;;4.87;;
21089;SDS011;10703;51.020;6.128;2023-07-24T08:59:43;6.93;;;5.00;;
21089;SDS011;10703;51.020;6.128;2023-07-24T09:02:09;4.93;;;4.50;;
21089;SDS011;10703;51.020;6.128;2023-07-24T09:04:36;6.10;;;5.28;;
21089;SDS011;10703;51.020;6.128;2023-07-24T09:07:03;5.30;;;4.80;;
21089;SDS011;10703;51.020;6.128;2023-07-24T09:09:30;5.07;;;4.63;;
21089;SDS011;10703;51.020;6.128;2023-07-24T09:11:57;6.38;;;4.50;;
21089;SDS011;10703;51.020;6.128;2023-07-24T09:14:26;5.88;;;4.57;;
21089;SDS011;10703;51.020;6.128;2023-07-24T09:17:04;4.90;;;4.40;;
21089;SDS011;10703;51.020;6.128;2023-07-24T09:19:34;4.93;;;4.50;;
21089;SDS011;10703;51.020;6.128;2023-07-24T09:22:09;4.90;;;4.50;;
21089;SDS011;10703;51.020;6.128;2023-07-24T09:24:56;4.93;;;4.47;;
21089;SDS011;10703;51.020;6.128;2023-07-24T09:27:24;5.00;;;4.50;;
21089;SDS011;10703;51.020;6.128;2023-07-24T09:29:53;5.00;;;4.47;;
21089;SDS011;10703;51.020;6.128;2023-07-24T09:32:25;4.88;;;4.38;;
21089;SDS011;10703;51.020;6.128;2023-07-24T09:34:53;6.18;;;4.57;;
21089;SDS011;10703;51.020;6.128;2023-07-24T09:39:50;4.70;;;4.30;;
21089;SDS011;10703;51.020;6.128;2023-07-24T09:42:27;5.40;;;3.90;;
21089;SDS011;10703;51.020;6.128;2023-07-24T09:44:56;4.60;;;4.20;;
21089;SDS011;10703;51.020;6.128;2023-07-24T09:47:23;5.70;;;3.95;;
21089;SDS011;10703;51.020;6.128;2023-07-24T09:50:09;4.93;;;4.43;;
21089;SDS011;10703;51.020;6.128;2023-07-24T09:52:37;5.53;;;4.28;;
21089;SDS011;10703;51.020;6.128;2023-07-24T09:55:11;5.40;;;4.22;;
21089;SDS011;10703;51.020;6.128;2023-07-24T09:57:50;5.18;;;3.80;;
21089;SDS011;10703;51.020;6.128;2023-07-24T10:00:20;4.20;;;3.90;;
21089;SDS011;10703;51.020;6.128;2023-07-24T10:02:48;4.43;;;4.03;;
21089;SDS011;10703;51.020;6.128;2023-07-24T10:05:15;4.25;;;3.60;;
21089;SDS011;10703;51.020;6.128;2023-07-24T10:07:42;4.60;;;4.03;;
21089;SDS011;10703;51.020;6.128;2023-07-24T10:10:09;6.22;;;4.10;;
21089;SDS011;10703;51.020;6.128;2023-07-24T10:12:36;4.30;;;3.90;;
21089;SDS011;10703;51.020;6.128;2023-07-24T10:15:04;4.13;;;3.83;;
21089;SDS011;10703;51.020;6.128;2023-07-24T10:17:35;3.95;;;3.65;;
21089;SDS011;10703;51.020;6.128;2023-07-24T10:20:06;4.43;;;3.70;;
21089;SDS011;10703;51.020;6.128;2023-07-24T10:22:35;5.57;;;4.20;;
21089;SDS011;10703;51.020;6.128;2023-07-24T10:25:03;4.15;;;3.85;;
21089;SDS011;10703;51.020;6.128;2023-07-24T10:27:31;3.92;;;3.60;;
21089;SDS011;10703;51.020;6.128;2023-07-24T10:30:03;4.20;;;3.80;;
21089;SDS011;10703;51.020;6.128;2023-07-24T10:32:48;4.25;;;3.85;;
21089;SDS011;10703;51.020;6.128;2023-07-24T10:35:21;9.00;;;4.20;;
21089;SDS011;10703;51.020;6.128;2023-07-24T10:37:58;5.07;;;4.53;;
21089;SDS011;10703;51.020;6.128;2023-07-24T10:40:25;6.93;;;4.97;;
21089;SDS011;10703;51.020;6.128;2023-07-24T10:43:08;5.50;;;4.70;;
21089;SDS011;10703;51.020;6.128;2023-07-24T10:45:41;8.27;;;4.87;;
21089;SDS011;10703;51.020;6.128;2023-07-24T10:48:12;5.57;;;5.07;;
21089;SDS011;10703;51.020;6.128;2023-07-24T10:50:40;7.37;;;5.83;;
21089;SDS011;10703;51.020;6.128;2023-07-24T10:53:13;6.37;;;5.27;;
21089;SDS011;10703;51.020;6.128;2023-07-24T10:55:42;5.67;;;5.17;;
21089;SDS011;10703;51.020;6.128;2023-07-24T10:58:10;15.10;;;5.70;;
21089;SDS011;10703;51.020;6.128;2023-07-24T11:00:38;5.73;;;5.23;;
21089;SDS011;10703;51.020;6.128;2023-07-24T11:03:12;6.73;;;5.10;;
21089;SDS011;10703;51.020;6.128;2023-07-24T11:05:43;5.93;;;5.10;;
21089;SDS011;10703;51.020;6.128;2023-07-24T11:10:48;6.17;;;5.23;;
21089;SDS011;10703;51.020;6.128;2023-07-24T11:13:28;4.57;;;4.17;;
21089;SDS011;10703;51.020;6.128;2023-07-24T11:15:55;3.90;;;3.60;;
21089;SDS011;10703;51.020;6.128;2023-07-24T11:18:22;4.23;;;3.93;;
21089;SDS011;10703;51.020;6.128;2023-07-24T11:20:57;4.60;;;4.20;;
21089;SDS011;10703;51.020;6.128;2023-07-24T11:23:24;5.27;;;4.67;;
21089;SDS011;10703;51.020;6.128;2023-07-24T11:25:53;5.00;;;4.50;;
21089;SDS011;10703;51.020;6.128;2023-07-24T11:28:20;4.80;;;4.40;;
21089;SDS011;10703;51.020;6.128;2023-07-24T11:30:47;4.70;;;4.30;;
21089;SDS011;10703;51.020;6.128;2023-07-24T11:33:15;4.90;;;4.10;;
21089;SDS011;10703;51.020;6.128;2023-07-24T11:35:45;4.20;;;3.90;;
21089;SDS011;10703;51.020;6.128;2023-07-24T11:38:11;3.93;;;3.63;;
21089;SDS011;10703;51.020;6.128;2023-07-24T11:40:40;4.23;;;3.93;;
21089;SDS011;10703;51.020;6.128;2023-07-24T11:43:18;4.57;;;3.73;;
21089;SDS011;10703;51.020;6.128;2023-07-24T11:45:49;5.57;;;3.90;;
21089;SDS011;10703;51.020;6.128;2023-07-24T11:48:21;4.77;;;3.80;;
21089;SDS011;10703;51.020;6.128;2023-07-24T11:55:54;4.20;;;3.80;;
21089;SDS011;10703;51.020;6.128;2023-07-24T11:58:25;5.63;;;4.30;;
21089;SDS011;10703;51.020;6.128;2023-07-24T12:00:53;4.28;;;3.90;;
21089;SDS011;10703;51.020;6.128;2023-07-24T12:03:20;3.70;;;3.40;;
21089;SDS011;10703;51.020;6.128;2023-07-24T12:05:48;3.90;;;3.50;;
21089;SDS011;10703;51.020;6.128;2023-07-24T12:08:21;3.65;;;3.28;;
21089;SDS011;10703;51.020;6.128;2023-07-24T12:10:56;3.75;;;3.03;;
21089;SDS011;10703;51.020;6.128;2023-07-24T12:13:22;3.22;;;2.92;;
21089;SDS011;10703;51.020;6.128;2023-07-24T12:15:49;3.03;;;2.83;;
21089;SDS011;10703;51.020;6.128;2023-07-24T12:18:16;2.30;;;2.10;;
21089;SDS011;10703;51.020;6.128;2023-07-24T12:20:42;2.00;;;1.90;;
21089;SDS011;10703;51.020;6.128;2023-07-24T12:23:09;2.00;;;1.90;;
21089;SDS011;10703;51.020;6.128;2023-07-24T12:25:36;2.20;;;2.10;;
21089;SDS011;10703;51.020;6.128;2023-07-24T12:28:03;2.15;;;2.00;;
21089;SDS011;10703;51.020;6.128;2023-07-24T12:30:30;2.42;;;2.20;;
21089;SDS011;10703;51.020;6.128;2023-07-24T12:32:56;2.70;;;2.50;;
21089;SDS011;10703;51.020;6.128;2023-07-24T12:35:24;2.70;;;2.50;;
21089;SDS011;10703;51.020;6.128;2023-07-24T12:37:51;2.88;;;2.67;;
21089;SDS011;10703;51.020;6.128;2023-07-24T12:40:17;2.60;;;2.50;;
21089;SDS011;10703;51.020;6.128;2023-07-24T12:42:44;3.33;;;3.13;;
21089;SDS011;10703;51.020;6.128;2023-07-24T12:45:10;3.25;;;3.05;;
21089;SDS011;10703;51.020;6.128;2023-07-24T12:47:37;3.58;;;2.90;;
21089;SDS011;10703;51.020;6.128;2023-07-24T12:50:04;3.30;;;3.10;;
21089;SDS011;10703;51.020;6.128;2023-07-24T12:52:33;3.28;;;3.08;;
21089;SDS011;10703;51.020;6.128;2023-07-24T12:55:00;3.15;;;2.95;;
21089;SDS011;10703;51.020;6.128;2023-07-24T12:57:28;3.30;;;3.10;;
21089;SDS011;10703;51.020;6.128;2023-07-24T12:59:55;3.08;;;2.88;;
21089;SDS011;10703;51.020;6.128;2023-07-24T13:02:21;3.10;;;2.80;;
21089;SDS011;10703;51.020;6.128;2023-07-24T13:04:48;3.20;;;3.00;;
21089;SDS011;10703;51.020;6.128;2023-07-24T13:07:15;2.92;;;2.72;;
21089;SDS011;10703;51.020;6.128;2023-07-24T13:09:41;2.75;;;2.55;;
21089;SDS011;10703;51.020;6.128;2023-07-24T13:12:08;2.90;;;2.70;;
21089;SDS011;10703;51.020;6.128;2023-07-24T13:14:35;3.22;;;2.92;;
21089;SDS011;10703;51.020;6.128;2023-07-24T13:17:06;3.25;;;3.05;;
21089;SDS011;10703;51.020;6.128;2023-07-24T13:19:33;3.22;;;3.03;;
21089;SDS011;10703;51.020;6.128;2023-07-24T13:22:00;3.25;;;3.05;;
21089;SDS011;10703;51.020;6.128;2023-07-24T13:24:26;3.38;;;3.17;;
21089;SDS011;10703;51.020;6.128;2023-07-24T13:26:53;3.28;;;3.00;;
21089;SDS011;10703;51.020;6.128;2023-07-24T13:29:20;3.60;;;3.30;;
21089;SDS011;10703;51.020;6.128;2023-07-24T13:31:51;6.78;;;3.15;;
21089;SDS011;10703;51.020;6.128;2023-07-24T13:34:21;3.70;;;3.40;;
21089;SDS011;10703;51.020;6.128;2023-07-24T13:36:49;4.57;;;3.38;;
21089;SDS011;10703;51.020;6.128;2023-07-24T13:39:16;3.88;;;3.58;;
21089;SDS011;10703;51.020;6.128;2023-07-24T13:41:43;4.03;;;3.60;;
21089;SDS011;10703;51.020;6.128;2023-07-24T13:44:09;4.07;;;3.78;;
21089;SDS011;10703;51.020;6.128;2023-07-24T13:46:36;3.95;;;3.72;;
21089;SDS011;10703;51.020;6.128;2023-07-24T13:49:05;4.10;;;3.80;;
21089;SDS011;10703;51.020;6.128;2023-07-24T13:51:32;3.80;;;3.50;;
21089;SDS011;10703;51.020;6.128;2023-07-24T13:53:59;3.95;;;3.58;;
21089;SDS011;10703;51.020;6.128;2023-07-24T13:56:28;4.40;;;4.00;;
21089;SDS011;10703;51.020;6.128;2023-07-24T13:58:55;8.75;;;4.47;;
21089;SDS011;10703;51.020;6.128;2023-07-24T14:01:22;6.87;;;4.10;;
21089;SDS011;10703;51.020;6.128;2023-07-24T14:03:49;4.60;;;4.30;;
21089;SDS011;10703;51.020;6.128;2023-07-24T14:06:16;4.87;;;4.43;;
21089;SDS011;10703;51.020;6.128;2023-07-24T14:08:43;4.57;;;4.10;;
21089;SDS011;10703;51.020;6.128;2023-07-24T14:11:09;4.60;;;4.20;;
21089;SDS011;10703;51.020;6.128;2023-07-24T14:13:36;5.15;;;4.75;;
21089;SDS011;10703;51.020;6.128;2023-07-24T14:16:03;4.30;;;4.00;;
21089;SDS011;10703;51.020;6.128;2023-07-24T14:18:29;3.80;;;3.50;;
21089;SDS011;10703;51.020;6.128;2023-07-24T14:20:56;3.97;;;3.67;;
21089;SDS011;10703;51.020;6.128;2023-07-24T14:23:23;3.92;;;3.60;;
21089;SDS011;10703;51.020;6.128;2023-07-24T14:25:49;3.90;;;3.60;;
21089;SDS011;10703;51.020;6.128;2023-07-24T14:28:16;3.80;;;3.45;;
21089;SDS011;10703;51.020;6.128;2023-07-24T14:30:42;5.22;;;3.78;;
21089;SDS011;10703;51.020;6.128;2023-07-24T14:33:09;3.90;;;3.60;;
21089;SDS011;10703;51.020;6.128;2023-07-24T14:35:36;5.97;;;3.67;;
21089;SDS011;10703;51.020;6.128;2023-07-24T14:38:02;3.85;;;3.45;;
21089;SDS011;10703;51.020;6.128;2023-07-24T14:40:29;4.63;;;3.90;;
21089;SDS011;10703;51.020;6.128;2023-07-24T14:42:56;4.10;;;3.80;;
21089;SDS011;10703;51.020;6.128;2023-07-24T14:45:22;3.63;;;3.33;;
21089;SDS011;10703;51.020;6.128;2023-07-24T14:47:49;3.88;;;3.58;;
21089;SDS011;10703;51.020;6.128;2023-07-24T14:50:16;3.65;;;3.35;;
21089;SDS011;10703;51.020;6.128;2023-07-24T14:52:42;4.05;;;3.65;;
21089;SDS011;10703;51.020;6.128;2023-07-24T14:55:09;3.75;;;3.25;;
21089;SDS011;10703;51.020;6.128;2023-07-24T14:57:36;3.78;;;3.47;;
21089;SDS011;10703;51.020;6.128;2023-07-24T15:00:03;3.65;;;3.35;;
21089;SDS011;10703;51.020;6.128;2023-07-24T15:02:30;3.85;;;3.22;;
21089;SDS011;10703;51.020;6.128;2023-07-24T15:04:58;4.00;;;3.70;;